Time,TemperatureF,DewpointF,PressureIn,WindDirection,WindDirectionDegrees,WindSpeedMPH,WindSpeedGustMPH,Humidity,HourlyPrecipIn,Conditions,Clouds,dailyrainin,SolarRadiationWatts/m^2,SoftwareType,DateUTC
2013-09-22 00:01:00,30.0,29.0,-100.00,West,265,0.0,0.0,98,0.00,,,0.11,0.000000,,2013-09-22 05:01:00,
2013-09-22 00:23:00,30.0,29.0,-100.00,West,265,0.0,0.0,98,0.00,,,0.11,0.000000,,2013-09-22 05:23:00,
2013-09-22 00:35:00,30.0,29.0,-100.00,West,265,0.0,0.0,98,0.00,,,0.11,0.000000,,2013-09-22 05:35:00,
2013-09-22 00:43:00,30.0,29.0,-100.00,West,265,0.0,0.0,98,0.00,,,0.11,0.000000,,2013-09-22 05:43:00,
2013-09-22 00:53:00,30.0,29.0,-100.00,West,265,0.0,0.0,98,0.00,,,0.11,0.000000,,2013-09-22 05:53:00,
2013-09-22 01:01:00,31.0,31.0,-100.00,SW,230,1.0,3.0,98,0.00,,,0.10,0.000000,,2013-09-22 06:01:00,
2013-09-22 01:22:00,31.0,31.0,-100.00,SW,230,1.0,3.0,98,0.00,,,0.10,0.000000,,2013-09-22 06:22:00,
2013-09-22 01:32:00,31.0,31.0,-100.00,SW,230,1.0,3.0,98,0.00,,,0.10,0.000000,,2013-09-22 06:32:00,
2013-09-22 01:42:00,31.0,31.0,-100.00,SW,230,1.0,3.0,98,0.00,,,0.10,0.000000,,2013-09-22 06:42:00,
2013-09-22 01:52:00,31.0,31.0,-100.00,SW,230,1.0,3.0,98,0.00,,,0.10,0.000000,,2013-09-22 06:52:00,
2013-09-22 02:01:00,33.0,32.0,-100.00,WNW,301,3.0,8.0,98,0.00,,,0.09,0.000000,,2013-09-22 07:01:00,
2013-09-22 02:22:00,33.0,32.0,-100.00,WNW,301,3.0,8.0,98,0.00,,,0.09,0.000000,,2013-09-22 07:22:00,
2013-09-22 02:32:00,33.0,32.0,-100.00,WNW,301,3.0,8.0,98,0.00,,,0.09,0.000000,,2013-09-22 07:32:00,
2013-09-22 02:42:00,33.0,32.0,-100.00,WNW,301,3.0,8.0,98,0.00,,,0.09,0.000000,,2013-09-22 07:42:00,
2013-09-22 02:52:00,33.0,32.0,-100.00,WNW,301,3.0,8.0,98,0.00,,,0.09,0.000000,,2013-09-22 07:52:00,
2013-09-22 03:01:00,36.0,35.0,-100.00,North,2,1.0,4.0,98,0.00,,,0.09,0.000000,,2013-09-22 08:01:00,
2013-09-22 03:22:00,36.0,35.0,-100.00,North,2,1.0,4.0,98,0.00,,,0.09,0.000000,,2013-09-22 08:22:00,
2013-09-22 03:32:00,36.0,35.0,-100.00,North,2,1.0,4.0,98,0.00,,,0.09,0.000000,,2013-09-22 08:32:00,
2013-09-22 03:42:00,36.0,35.0,-100.00,North,2,1.0,4.0,98,0.00,,,0.09,0.000000,,2013-09-22 08:42:00,
2013-09-22 03:52:00,36.0,35.0,-100.00,North,2,1.0,4.0,98,0.00,,,0.09,0.000000,,2013-09-22 08:52:00,
2013-09-22 04:01:00,38.0,38.0,-100.00,East,89,2.0,3.0,99,0.00,,,0.06,0.000000,,2013-09-22 09:01:00,
2013-09-22 04:22:00,38.0,38.0,-100.00,East,89,2.0,3.0,99,0.00,,,0.06,0.000000,,2013-09-22 09:22:00,
2013-09-22 04:33:00,38.0,38.0,-100.00,East,89,2.0,3.0,99,0.00,,,0.06,0.000000,,2013-09-22 09:33:00,
2013-09-22 04:43:00,38.0,38.0,-100.00,East,89,2.0,3.0,99,0.00,,,0.06,0.000000,,2013-09-22 09:43:00,
2013-09-22 04:54:00,38.0,38.0,-100.00,East,89,2.0,3.0,99,0.00,,,0.06,0.000000,,2013-09-22 09:54:00,
2013-09-22 05:23:00,38.0,37.0,-100.00,ESE,103,2.0,3.0,98,0.00,,,0.04,0.000000,,2013-09-22 10:23:00,
2013-09-22 05:33:00,38.0,37.0,-100.00,ESE,103,2.0,3.0,98,0.00,,,0.04,0.000000,,2013-09-22 10:33:00,
2013-09-22 05:44:00,38.0,37.0,-100.00,ESE,103,2.0,3.0,98,0.00,,,0.04,0.000000,,2013-09-22 10:44:00,
2013-09-22 05:53:00,38.0,37.0,-100.00,ESE,103,2.0,3.0,98,0.00,,,0.04,0.000000,,2013-09-22 10:53:00,
2013-09-22 06:01:00,36.0,35.0,-100.00,NW,307,0.0,2.0,98,0.00,,,0.00,0.000000,,2013-09-22 11:01:00,
2013-09-22 06:42:00,36.0,35.0,-100.00,NW,307,0.0,2.0,98,0.00,,,0.00,0.000000,,2013-09-22 11:42:00,
2013-09-22 06:52:00,36.0,35.0,-100.00,NW,307,0.0,2.0,98,0.00,,,0.00,0.000000,,2013-09-22 11:52:00,
2013-09-22 07:01:00,34.0,34.0,-100.00,NNE,33,0.0,0.0,98,0.00,,,0.00,2.000000,,2013-09-22 12:01:00,
2013-09-22 07:22:00,34.0,34.0,-100.00,NNE,33,0.0,0.0,98,0.00,,,0.00,2.000000,,2013-09-22 12:22:00,
2013-09-22 07:32:00,34.0,34.0,-100.00,NNE,33,0.0,0.0,98,0.00,,,0.00,2.000000,,2013-09-22 12:32:00,
2013-09-22 07:42:00,34.0,34.0,-100.00,NNE,33,0.0,0.0,98,0.00,,,0.00,2.000000,,2013-09-22 12:42:00,
2013-09-22 07:52:00,34.0,34.0,-100.00,NNE,33,0.0,0.0,98,0.00,,,0.00,2.000000,,2013-09-22 12:52:00,
2013-09-22 08:01:00,40.0,39.0,-100.00,SSW,195,0.0,0.0,96,0.00,,,0.00,90.000000,,2013-09-22 13:01:00,
2013-09-22 08:42:00,40.0,39.0,-100.00,SSW,195,0.0,0.0,96,0.00,,,0.00,90.000000,,2013-09-22 13:42:00,
2013-09-22 08:52:00,40.0,39.0,-100.00,SSW,195,0.0,0.0,96,0.00,,,0.00,90.000000,,2013-09-22 13:52:00,
2013-09-22 09:01:00,47.0,39.0,-100.00,SSE,150,5.0,8.0,75,0.00,,,0.00,296.000000,,2013-09-22 14:01:00,
2013-09-22 09:42:00,47.0,39.0,-100.00,SSE,150,5.0,8.0,75,0.00,,,0.00,296.000000,,2013-09-22 14:42:00,
2013-09-22 09:52:00,47.0,39.0,-100.00,SSE,150,5.0,8.0,75,0.00,,,0.00,296.000000,,2013-09-22 14:52:00,
2013-09-22 10:01:00,50.0,39.0,-100.00,ESE,115,4.0,9.0,65,0.00,,,0.00,450.000000,,2013-09-22 15:01:00,
2013-09-22 10:23:00,50.0,39.0,-100.00,ESE,115,4.0,9.0,65,0.00,,,0.00,450.000000,,2013-09-22 15:23:00,
2013-09-22 10:34:00,50.0,39.0,-100.00,ESE,115,4.0,9.0,65,0.00,,,0.00,450.000000,,2013-09-22 15:34:00,
2013-09-22 10:44:00,50.0,39.0,-100.00,ESE,115,4.0,9.0,65,0.00,,,0.00,450.000000,,2013-09-22 15:44:00,
2013-09-22 10:55:00,50.0,39.0,-100.00,ESE,115,4.0,9.0,65,0.00,,,0.00,450.000000,,2013-09-22 15:55:00,
2013-09-22 11:01:00,53.0,39.0,-100.00,SE,127,4.0,11.0,59,0.00,,,-99.99,601.000000,,2013-09-22 16:01:00,
2013-09-22 11:24:00,53.0,39.0,-100.00,SE,127,4.0,11.0,59,0.00,,,-99.99,601.000000,,2013-09-22 16:24:00,
2013-09-22 11:33:00,53.0,39.0,-100.00,SE,127,4.0,11.0,59,0.00,,,-99.99,601.000000,,2013-09-22 16:33:00,
2013-09-22 11:43:00,53.0,39.0,-100.00,SE,127,4.0,11.0,59,0.00,,,-99.99,601.000000,,2013-09-22 16:43:00,
2013-09-22 11:54:00,53.0,39.0,-100.00,SE,127,4.0,11.0,59,0.00,,,-99.99,601.000000,,2013-09-22 16:54:00,
2013-09-22 12:01:00,54.0,39.0,-100.00,SSE,154,5.0,10.0,56,0.00,,,0.00,709.000000,,2013-09-22 17:01:00,
2013-09-22 12:43:00,54.0,39.0,-100.00,SSE,154,5.0,10.0,56,0.00,,,0.00,709.000000,,2013-09-22 17:43:00,
2013-09-22 12:53:00,54.0,39.0,-100.00,SSE,154,5.0,10.0,56,0.00,,,0.00,709.000000,,2013-09-22 17:53:00,
2013-09-22 13:01:00,56.0,39.0,-100.00,SSE,159,4.0,11.0,52,0.00,,,0.00,786.000000,,2013-09-22 18:01:00,
2013-09-22 13:42:00,56.0,39.0,-100.00,SSE,159,4.0,11.0,52,0.00,,,0.00,786.000000,,2013-09-22 18:42:00,
2013-09-22 13:52:00,56.0,39.0,-100.00,SSE,159,4.0,11.0,52,0.00,,,0.00,786.000000,,2013-09-22 18:52:00,
2013-09-22 14:01:00,59.0,40.0,-100.00,SE,133,4.0,10.0,49,0.00,,,0.00,749.000000,,2013-09-22 19:01:00,
2013-09-22 14:42:00,59.0,40.0,-100.00,SE,133,4.0,10.0,49,0.00,,,0.00,749.000000,,2013-09-22 19:42:00,
2013-09-22 14:52:00,59.0,40.0,-100.00,SE,133,4.0,10.0,49,0.00,,,0.00,749.000000,,2013-09-22 19:52:00,
2013-09-22 15:01:00,59.0,39.0,-100.00,SSW,205,6.0,11.0,47,0.00,,,0.00,714.000000,,2013-09-22 20:01:00,
2013-09-22 15:42:00,59.0,39.0,-100.00,SSW,205,6.0,11.0,47,0.00,,,0.00,714.000000,,2013-09-22 20:42:00,
2013-09-22 15:52:00,59.0,39.0,-100.00,SSW,205,6.0,11.0,47,0.00,,,0.00,714.000000,,2013-09-22 20:52:00,
2013-09-22 16:01:00,60.0,40.0,-100.00,SE,131,6.0,11.0,48,0.00,,,0.00,598.000000,,2013-09-22 21:01:00,
2013-09-22 16:45:00,60.0,40.0,-100.00,SE,131,6.0,11.0,48,0.00,,,0.00,598.000000,,2013-09-22 21:45:00,
2013-09-22 16:54:00,60.0,40.0,-100.00,SE,131,6.0,11.0,48,0.00,,,0.00,598.000000,,2013-09-22 21:54:00,
2013-09-22 17:01:00,62.0,42.0,-100.00,SSW,202,3.0,11.0,48,0.00,,,0.00,435.000000,,2013-09-22 22:01:00,
2013-09-22 17:43:00,62.0,42.0,-100.00,SSW,202,3.0,11.0,48,0.00,,,0.00,435.000000,,2013-09-22 22:43:00,
2013-09-22 17:53:00,62.0,42.0,-100.00,SSW,202,3.0,11.0,48,0.00,,,0.00,435.000000,,2013-09-22 22:53:00,
2013-09-22 18:01:00,59.0,41.0,-100.00,SSE,153,3.0,9.0,51,0.00,,,0.00,251.000000,,2013-09-22 23:01:00,
2013-09-22 18:43:00,59.0,41.0,-100.00,SSE,153,3.0,9.0,51,0.00,,,0.00,251.000000,,2013-09-22 23:43:00,
2013-09-22 18:52:00,59.0,41.0,-100.00,SSE,153,3.0,9.0,51,0.00,,,0.00,251.000000,,2013-09-22 23:52:00,
2013-09-22 19:01:00,49.0,45.0,-100.00,SE,125,0.0,6.0,86,0.00,,,0.00,40.000000,,2013-09-23 00:01:00,
2013-09-22 19:53:00,49.0,45.0,-100.00,SE,125,0.0,6.0,86,0.00,,,0.00,40.000000,,2013-09-23 00:53:00,
2013-09-22 20:01:00,42.0,41.0,-100.00,SE,129,0.0,3.0,95,0.00,,,0.00,1.000000,,2013-09-23 01:01:00,
2013-09-22 20:52:00,42.0,41.0,-100.00,SE,129,0.0,3.0,95,0.00,,,0.00,1.000000,,2013-09-23 01:52:00,
2013-09-22 21:01:00,44.0,39.0,-100.00,South,177,1.0,7.0,84,0.00,,,0.00,0.000000,,2013-09-23 02:01:00,
2013-09-22 21:42:00,44.0,39.0,-100.00,South,177,1.0,7.0,84,0.00,,,0.00,0.000000,,2013-09-23 02:42:00,
2013-09-22 21:52:00,44.0,39.0,-100.00,South,177,1.0,7.0,84,0.00,,,0.00,0.000000,,2013-09-23 02:52:00,
2013-09-22 23:01:00,43.0,42.0,-100.00,SSW,197,3.0,6.0,98,-99.99,,,0.00,0.000000,,2013-09-23 04:01:00,
2013-09-22 23:24:00,43.0,42.0,-100.00,SSW,197,3.0,6.0,98,-99.99,,,0.00,0.000000,,2013-09-23 04:24:00,
2013-09-22 23:34:00,43.0,42.0,-100.00,SSW,197,3.0,6.0,98,-99.99,,,0.00,0.000000,,2013-09-23 04:34:00,
2013-09-22 23:43:00,43.0,42.0,-100.00,SSW,197,3.0,6.0,98,-99.99,,,0.00,0.000000,,2013-09-23 04:43:00,
2013-09-22 23:54:00,43.0,42.0,-100.00,SSW,197,3.0,6.0,98,-99.99,,,0.00,0.000000,,2013-09-23 04:54:00,